sensor_id;sensor_type;location;lat;lon;timestamp;P1;durP1;ratioP1;P2;durP2;ratioP2
10847;SDS011;5477;48.806;9.154;2023-06-26T00:00:06;8.10;;;7.10;;
10847;SDS011;5477;48.806;9.154;2023-06-26T00:02:37;7.83;;;6.30;;
10847;SDS011;5477;48.806;9.154;2023-06-26T00:05:05;12.53;;;7.70;;
10847;SDS011;5477;48.806;9.154;2023-06-26T00:07:34;7.53;;;6.73;;
10847;SDS011;5477;48.806;9.154;2023-06-26T00:10:02;8.53;;;7.17;;
10847;SDS011;5477;48.806;9.154;2023-06-26T00:12:31;8.70;;;7.27;;
10847;SDS011;5477;48.806;9.154;2023-06-26T00:15:01;7.90;;;7.00;;
10847;SDS011;5477;48.806;9.154;2023-06-26T00:17:29;8.97;;;7.20;;
10847;SDS011;5477;48.806;9.154;2023-06-26T00:20:03;8.33;;;7.37;;
10847;SDS011;5477;48.806;9.154;2023-06-26T00:22:37;9.30;;;6.97;;
10847;SDS011;5477;48.806;9.154;2023-06-26T00:25:07;11.00;;;7.40;;
10847;SDS011;5477;48.806;9.154;2023-06-26T00:27:35;8.20;;;7.30;;
10847;SDS011;5477;48.806;9.154;2023-06-26T00:30:05;8.60;;;7.07;;
10847;SDS011;5477;48.806;9.154;2023-06-26T00:32:34;7.47;;;6.67;;
10847;SDS011;5477;48.806;9.154;2023-06-26T00:35:05;8.53;;;6.90;;
10847;SDS011;5477;48.806;9.154;2023-06-26T00:37:33;10.37;;;6.60;;
10847;SDS011;5477;48.806;9.154;2023-06-26T00:40:01;8.33;;;7.30;;
10847;SDS011;5477;48.806;9.154;2023-06-26T00:42:32;7.50;;;6.57;;
10847;SDS011;5477;48.806;9.154;2023-06-26T00:45:00;8.70;;;7.03;;
10847;SDS011;5477;48.806;9.154;2023-06-26T00:47:30;9.17;;;7.10;;
10847;SDS011;5477;48.806;9.154;2023-06-26T00:49:59;8.50;;;7.53;;
10847;SDS011;5477;48.806;9.154;2023-06-26T00:52:27;8.67;;;6.70;;
10847;SDS011;5477;48.806;9.154;2023-06-26T00:54:55;8.53;;;7.03;;
10847;SDS011;5477;48.806;9.154;2023-06-26T00:57:23;8.47;;;6.70;;
10847;SDS011;5477;48.806;9.154;2023-06-26T00:59:52;8.20;;;6.60;;
10847;SDS011;5477;48.806;9.154;2023-06-26T01:02:21;7.83;;;6.73;;
10847;SDS011;5477;48.806;9.154;2023-06-26T01:04:50;9.70;;;7.23;;
10847;SDS011;5477;48.806;9.154;2023-06-26T01:07:20;9.10;;;7.80;;
10847;SDS011;5477;48.806;9.154;2023-06-26T01:09:49;10.20;;;7.33;;
10847;SDS011;5477;48.806;9.154;2023-06-26T01:12:18;9.07;;;7.17;;
10847;SDS011;5477;48.806;9.154;2023-06-26T01:14:47;11.23;;;7.43;;
10847;SDS011;5477;48.806;9.154;2023-06-26T01:17:16;8.67;;;7.00;;
10847;SDS011;5477;48.806;9.154;2023-06-26T01:19:45;8.77;;;7.17;;
10847;SDS011;5477;48.806;9.154;2023-06-26T01:22:16;9.57;;;7.43;;
10847;SDS011;5477;48.806;9.154;2023-06-26T01:24:53;8.27;;;7.37;;
10847;SDS011;5477;48.806;9.154;2023-06-26T01:27:31;9.47;;;7.37;;
10847;SDS011;5477;48.806;9.154;2023-06-26T01:30:00;9.73;;;7.10;;
10847;SDS011;5477;48.806;9.154;2023-06-26T01:32:31;8.13;;;7.03;;
10847;SDS011;5477;48.806;9.154;2023-06-26T01:35:00;8.60;;;7.07;;
10847;SDS011;5477;48.806;9.154;2023-06-26T01:37:30;8.97;;;7.30;;
10847;SDS011;5477;48.806;9.154;2023-06-26T01:39:58;8.67;;;7.10;;
10847;SDS011;5477;48.806;9.154;2023-06-26T01:42:26;8.50;;;7.40;;
10847;SDS011;5477;48.806;9.154;2023-06-26T01:44:55;7.43;;;6.40;;
10847;SDS011;5477;48.806;9.154;2023-06-26T01:47:24;7.40;;;6.70;;
10847;SDS011;5477;48.806;9.154;2023-06-26T01:49:56;8.63;;;7.10;;
10847;SDS011;5477;48.806;9.154;2023-06-26T01:52:29;8.97;;;7.40;;
10847;SDS011;5477;48.806;9.154;2023-06-26T01:55:05;8.47;;;6.70;;
10847;SDS011;5477;48.806;9.154;2023-06-26T01:57:41;9.63;;;7.23;;
10847;SDS011;5477;48.806;9.154;2023-06-26T02:00:11;9.60;;;7.33;;
10847;SDS011;5477;48.806;9.154;2023-06-26T02:02:44;8.70;;;6.83;;
10847;SDS011;5477;48.806;9.154;2023-06-26T02:05:12;10.00;;;7.43;;
10847;SDS011;5477;48.806;9.154;2023-06-26T02:07:41;8.73;;;6.87;;
10847;SDS011;5477;48.806;9.154;2023-06-26T02:10:10;7.97;;;7.17;;
10847;SDS011;5477;48.806;9.154;2023-06-26T02:12:38;9.83;;;7.30;;
10847;SDS011;5477;48.806;9.154;2023-06-26T02:15:07;7.93;;;6.80;;
10847;SDS011;5477;48.806;9.154;2023-06-26T02:17:39;7.23;;;6.53;;
10847;SDS011;5477;48.806;9.154;2023-06-26T02:20:08;8.63;;;7.37;;
10847;SDS011;5477;48.806;9.154;2023-06-26T02:22:36;7.07;;;6.13;;
10847;SDS011;5477;48.806;9.154;2023-06-26T02:25:08;8.43;;;7.00;;
10847;SDS011;5477;48.806;9.154;2023-06-26T02:27:37;7.80;;;6.53;;
10847;SDS011;5477;48.806;9.154;2023-06-26T02:30:05;9.63;;;7.10;;
10847;SDS011;5477;48.806;9.154;2023-06-26T02:32:35;8.00;;;6.90;;
10847;SDS011;5477;48.806;9.154;2023-06-26T02:35:05;9.93;;;6.57;;
10847;SDS011;5477;48.806;9.154;2023-06-26T02:37:34;9.60;;;6.40;;
10847;SDS011;5477;48.806;9.154;2023-06-26T02:40:03;7.87;;;6.57;;
10847;SDS011;5477;48.806;9.154;2023-06-26T02:42:32;8.17;;;6.60;;
10847;SDS011;5477;48.806;9.154;2023-06-26T02:45:02;8.27;;;6.53;;
10847;SDS011;5477;48.806;9.154;2023-06-26T02:47:31;7.87;;;6.80;;
10847;SDS011;5477;48.806;9.154;2023-06-26T02:49:59;7.97;;;6.90;;
10847;SDS011;5477;48.806;9.154;2023-06-26T02:52:34;8.57;;;6.40;;
10847;SDS011;5477;48.806;9.154;2023-06-26T02:55:02;7.80;;;6.40;;
10847;SDS011;5477;48.806;9.154;2023-06-26T02:57:31;7.17;;;6.40;;
10847;SDS011;5477;48.806;9.154;2023-06-26T03:00:00;8.10;;;6.87;;
10847;SDS011;5477;48.806;9.154;2023-06-26T03:02:29;9.43;;;6.63;;
10847;SDS011;5477;48.806;9.154;2023-06-26T03:04:57;7.67;;;6.63;;
10847;SDS011;5477;48.806;9.154;2023-06-26T03:07:26;7.90;;;6.63;;
10847;SDS011;5477;48.806;9.154;2023-06-26T03:09:55;7.57;;;6.33;;
10847;SDS011;5477;48.806;9.154;2023-06-26T03:12:25;7.67;;;6.40;;
10847;SDS011;5477;48.806;9.154;2023-06-26T03:14:53;7.50;;;6.07;;
10847;SDS011;5477;48.806;9.154;2023-06-26T03:17:21;7.17;;;6.47;;
10847;SDS011;5477;48.806;9.154;2023-06-26T03:19:55;7.60;;;6.80;;
10847;SDS011;5477;48.806;9.154;2023-06-26T03:22:30;8.23;;;6.63;;
10847;SDS011;5477;48.806;9.154;2023-06-26T03:24:59;7.73;;;6.60;;
10847;SDS011;5477;48.806;9.154;2023-06-26T03:27:29;9.27;;;6.60;;
10847;SDS011;5477;48.806;9.154;2023-06-26T03:29:57;8.57;;;6.60;;
10847;SDS011;5477;48.806;9.154;2023-06-26T03:32:25;8.70;;;6.53;;
10847;SDS011;5477;48.806;9.154;2023-06-26T03:34:53;8.07;;;6.73;;
10847;SDS011;5477;48.806;9.154;2023-06-26T03:37:21;7.97;;;6.73;;
10847;SDS011;5477;48.806;9.154;2023-06-26T03:39:50;7.60;;;6.47;;
10847;SDS011;5477;48.806;9.154;2023-06-26T03:42:19;7.63;;;6.83;;
10847;SDS011;5477;48.806;9.154;2023-06-26T03:44:47;8.83;;;6.93;;
10847;SDS011;5477;48.806;9.154;2023-06-26T03:47:17;9.27;;;6.93;;
10847;SDS011;5477;48.806;9.154;2023-06-26T03:49:45;9.40;;;7.20;;
10847;SDS011;5477;48.806;9.154;2023-06-26T03:52:13;7.87;;;6.90;;
10847;SDS011;5477;48.806;9.154;2023-06-26T03:54:42;9.80;;;6.50;;
10847;SDS011;5477;48.806;9.154;2023-06-26T03:57:10;7.47;;;6.60;;
10847;SDS011;5477;48.806;9.154;2023-06-26T03:59:39;9.53;;;7.83;;
10847;SDS011;5477;48.806;9.154;2023-06-26T04:02:07;8.57;;;7.17;;
10847;SDS011;5477;48.806;9.154;2023-06-26T04:04:35;9.07;;;7.03;;
10847;SDS011;5477;48.806;9.154;2023-06-26T04:07:03;7.03;;;6.33;;
10847;SDS011;5477;48.806;9.154;2023-06-26T04:09:32;9.03;;;7.17;;
10847;SDS011;5477;48.806;9.154;2023-06-26T04:12:00;8.60;;;6.80;;
10847;SDS011;5477;48.806;9.154;2023-06-26T04:14:28;9.13;;;8.17;;
10847;SDS011;5477;48.806;9.154;2023-06-26T04:16:57;13.80;;;8.30;;
10847;SDS011;5477;48.806;9.154;2023-06-26T04:19:28;9.77;;;7.77;;
10847;SDS011;5477;48.806;9.154;2023-06-26T04:21:56;11.47;;;7.87;;
10847;SDS011;5477;48.806;9.154;2023-06-26T04:24:25;13.97;;;7.70;;
10847;SDS011;5477;48.806;9.154;2023-06-26T04:26:52;10.07;;;8.70;;
10847;SDS011;5477;48.806;9.154;2023-06-26T04:29:23;10.63;;;9.27;;
10847;SDS011;5477;48.806;9.154;2023-06-26T04:31:53;10.97;;;9.00;;
10847;SDS011;5477;48.806;9.154;2023-06-26T04:34:26;13.00;;;9.00;;
10847;SDS011;5477;48.806;9.154;2023-06-26T04:36:54;10.53;;;8.63;;
10847;SDS011;5477;48.806;9.154;2023-06-26T04:39:23;10.90;;;7.93;;
10847;SDS011;5477;48.806;9.154;2023-06-26T04:41:51;11.27;;;8.83;;
10847;SDS011;5477;48.806;9.154;2023-06-26T04:44:19;10.67;;;8.40;;
10847;SDS011;5477;48.806;9.154;2023-06-26T04:46:47;9.90;;;8.50;;
10847;SDS011;5477;48.806;9.154;2023-06-26T04:49:18;10.63;;;8.30;;
10847;SDS011;5477;48.806;9.154;2023-06-26T04:51:48;9.13;;;7.43;;
10847;SDS011;5477;48.806;9.154;2023-06-26T04:54:17;12.17;;;8.03;;
10847;SDS011;5477;48.806;9.154;2023-06-26T04:56:45;9.30;;;7.67;;
10847;SDS011;5477;48.806;9.154;2023-06-26T04:59:14;8.90;;;7.63;;
10847;SDS011;5477;48.806;9.154;2023-06-26T05:01:42;11.57;;;8.00;;
10847;SDS011;5477;48.806;9.154;2023-06-26T05:04:15;9.03;;;8.00;;
10847;SDS011;5477;48.806;9.154;2023-06-26T05:06:44;11.30;;;8.30;;
10847;SDS011;5477;48.806;9.154;2023-06-26T05:09:13;12.00;;;8.63;;
10847;SDS011;5477;48.806;9.154;2023-06-26T05:11:41;9.77;;;7.93;;
10847;SDS011;5477;48.806;9.154;2023-06-26T05:14:09;8.60;;;7.60;;
10847;SDS011;5477;48.806;9.154;2023-06-26T05:16:39;12.30;;;7.97;;
10847;SDS011;5477;48.806;9.154;2023-06-26T05:19:07;10.73;;;7.80;;
10847;SDS011;5477;48.806;9.154;2023-06-26T05:21:35;9.27;;;8.10;;
10847;SDS011;5477;48.806;9.154;2023-06-26T05:24:03;9.87;;;7.60;;
10847;SDS011;5477;48.806;9.154;2023-06-26T05:26:34;11.60;;;8.17;;
10847;SDS011;5477;48.806;9.154;2023-06-26T05:29:02;9.07;;;7.93;;
10847;SDS011;5477;48.806;9.154;2023-06-26T05:31:31;9.63;;;7.70;;
10847;SDS011;5477;48.806;9.154;2023-06-26T05:34:02;10.23;;;7.10;;
10847;SDS011;5477;48.806;9.154;2023-06-26T05:36:31;12.47;;;8.57;;
10847;SDS011;5477;48.806;9.154;2023-06-26T05:39:02;10.73;;;8.27;;
10847;SDS011;5477;48.806;9.154;2023-06-26T05:41:31;9.50;;;7.87;;
10847;SDS011;5477;48.806;9.154;2023-06-26T05:44:01;9.07;;;7.32;;
10847;SDS011;5477;48.806;9.154;2023-06-26T05:46:29;9.30;;;7.00;;
10847;SDS011;5477;48.806;9.154;2023-06-26T05:48:56;11.40;;;7.70;;
10847;SDS011;5477;48.806;9.154;2023-06-26T05:51:25;11.07;;;7.60;;
10847;SDS011;5477;48.806;9.154;2023-06-26T05:53:53;11.13;;;7.77;;
10847;SDS011;5477;48.806;9.154;2023-06-26T05:56:23;11.30;;;7.27;;
10847;SDS011;5477;48.806;9.154;2023-06-26T05:58:51;9.10;;;7.33;;
10847;SDS011;5477;48.806;9.154;2023-06-26T06:01:21;10.00;;;7.63;;
10847;SDS011;5477;48.806;9.154;2023-06-26T06:03:49;10.73;;;6.90;;
10847;SDS011;5477;48.806;9.154;2023-06-26T06:06:17;9.47;;;7.20;;
10847;SDS011;5477;48.806;9.154;2023-06-26T06:08:46;10.80;;;7.28;;
10847;SDS011;5477;48.806;9.154;2023-06-26T06:11:15;9.77;;;7.07;;
10847;SDS011;5477;48.806;9.154;2023-06-26T06:13:43;10.07;;;7.80;;
10847;SDS011;5477;48.806;9.154;2023-06-26T06:16:11;8.43;;;7.13;;
10847;SDS011;5477;48.806;9.154;2023-06-26T06:18:40;11.97;;;7.97;;
10847;SDS011;5477;48.806;9.154;2023-06-26T06:21:08;10.52;;;7.18;;
10847;SDS011;5477;48.806;9.154;2023-06-26T06:23:36;11.00;;;6.40;;
10847;SDS011;5477;48.806;9.154;2023-06-26T06:26:05;9.97;;;7.27;;
10847;SDS011;5477;48.806;9.154;2023-06-26T06:28:33;8.53;;;7.03;;
10847;SDS011;5477;48.806;9.154;2023-06-26T06:31:01;8.93;;;7.32;;
10847;SDS011;5477;48.806;9.154;2023-06-26T06:33:29;9.50;;;7.47;;
10847;SDS011;5477;48.806;9.154;2023-06-26T06:35:58;8.13;;;7.10;;
10847;SDS011;5477;48.806;9.154;2023-06-26T06:38:26;9.00;;;7.20;;
10847;SDS011;5477;48.806;9.154;2023-06-26T06:40:54;10.93;;;7.27;;
10847;SDS011;5477;48.806;9.154;2023-06-26T06:43:22;11.43;;;7.85;;
10847;SDS011;5477;48.806;9.154;2023-06-26T06:45:50;17.80;;;7.95;;
10847;SDS011;5477;48.806;9.154;2023-06-26T06:48:18;9.23;;;7.68;;
10847;SDS011;5477;48.806;9.154;2023-06-26T06:50:46;11.40;;;7.05;;
10847;SDS011;5477;48.806;9.154;2023-06-26T06:53:15;11.02;;;7.53;;
10847;SDS011;5477;48.806;9.154;2023-06-26T06:55:43;9.90;;;6.95;;
10847;SDS011;5477;48.806;9.154;2023-06-26T06:58:11;11.20;;;7.45;;
10847;SDS011;5477;48.806;9.154;2023-06-26T07:00:39;7.90;;;6.72;;
10847;SDS011;5477;48.806;9.154;2023-06-26T07:03:07;9.82;;;7.07;;
10847;SDS011;5477;48.806;9.154;2023-06-26T07:05:36;7.85;;;6.90;;
10847;SDS011;5477;48.806;9.154;2023-06-26T07:08:05;10.70;;;7.40;;
10847;SDS011;5477;48.806;9.154;2023-06-26T07:10:34;10.98;;;7.50;;
10847;SDS011;5477;48.806;9.154;2023-06-26T07:13:05;10.57;;;7.65;;
10847;SDS011;5477;48.806;9.154;2023-06-26T07:15:33;11.70;;;7.28;;
10847;SDS011;5477;48.806;9.154;2023-06-26T07:18:01;15.13;;;7.15;;
10847;SDS011;5477;48.806;9.154;2023-06-26T07:20:29;15.30;;;7.22;;
10847;SDS011;5477;48.806;9.154;2023-06-26T07:22:57;9.60;;;7.22;;
10847;SDS011;5477;48.806;9.154;2023-06-26T07:25:25;12.35;;;6.75;;
10847;SDS011;5477;48.806;9.154;2023-06-26T07:27:54;10.18;;;6.70;;
10847;SDS011;5477;48.806;9.154;2023-06-26T07:30:22;8.68;;;7.55;;
10847;SDS011;5477;48.806;9.154;2023-06-26T07:32:50;11.05;;;6.75;;
10847;SDS011;5477;48.806;9.154;2023-06-26T07:35:18;9.52;;;6.90;;
10847;SDS011;5477;48.806;9.154;2023-06-26T07:37:46;10.48;;;7.43;;
10847;SDS011;5477;48.806;9.154;2023-06-26T07:40:14;7.50;;;6.60;;
10847;SDS011;5477;48.806;9.154;2023-06-26T07:42:44;9.13;;;7.15;;
10847;SDS011;5477;48.806;9.154;2023-06-26T07:45:14;11.88;;;6.70;;
10847;SDS011;5477;48.806;9.154;2023-06-26T07:47:42;7.82;;;5.85;;
10847;SDS011;5477;48.806;9.154;2023-06-26T07:50:10;7.60;;;5.95;;
10847;SDS011;5477;48.806;9.154;2023-06-26T07:52:38;7.72;;;5.97;;
10847;SDS011;5477;48.806;9.154;2023-06-26T07:55:06;11.98;;;6.88;;
10847;SDS011;5477;48.806;9.154;2023-06-26T07:57:34;8.68;;;6.47;;
10847;SDS011;5477;48.806;9.154;2023-06-26T08:00:03;8.18;;;6.45;;
10847;SDS011;5477;48.806;9.154;2023-06-26T08:02:40;8.35;;;6.10;;
10847;SDS011;5477;48.806;9.154;2023-06-26T08:05:08;7.53;;;6.50;;
10847;SDS011;5477;48.806;9.154;2023-06-26T08:07:37;11.80;;;6.95;;
10847;SDS011;5477;48.806;9.154;2023-06-26T08:10:05;7.65;;;6.05;;
10847;SDS011;5477;48.806;9.154;2023-06-26T08:12:33;8.80;;;5.90;;
10847;SDS011;5477;48.806;9.154;2023-06-26T08:15:03;6.50;;;5.40;;
10847;SDS011;5477;48.806;9.154;2023-06-26T08:17:31;7.30;;;4.97;;
10847;SDS011;5477;48.806;9.154;2023-06-26T08:20:00;5.60;;;4.80;;
10847;SDS011;5477;48.806;9.154;2023-06-26T08:22:28;6.88;;;5.38;;
10847;SDS011;5477;48.806;9.154;2023-06-26T08:24:56;5.85;;;5.28;;
10847;SDS011;5477;48.806;9.154;2023-06-26T08:27:24;6.35;;;4.50;;
10847;SDS011;5477;48.806;9.154;2023-06-26T08:29:52;5.25;;;4.75;;
10847;SDS011;5477;48.806;9.154;2023-06-26T08:32:20;6.60;;;4.72;;
10847;SDS011;5477;48.806;9.154;2023-06-26T08:34:48;9.52;;;5.10;;
10847;SDS011;5477;48.806;9.154;2023-06-26T08:37:18;5.75;;;4.72;;
10847;SDS011;5477;48.806;9.154;2023-06-26T08:39:46;6.82;;;4.93;;
10847;SDS011;5477;48.806;9.154;2023-06-26T08:42:15;5.63;;;5.05;;
10847;SDS011;5477;48.806;9.154;2023-06-26T08:44:43;7.53;;;4.85;;
10847;SDS011;5477;48.806;9.154;2023-06-26T08:47:27;4.95;;;4.55;;
10847;SDS011;5477;48.806;9.154;2023-06-26T08:49:59;6.85;;;4.63;;
10847;SDS011;5477;48.806;9.154;2023-06-26T08:52:36;5.25;;;4.47;;
10847;SDS011;5477;48.806;9.154;2023-06-26T08:55:09;5.43;;;4.93;;
10847;SDS011;5477;48.806;9.154;2023-06-26T08:57:37;6.45;;;5.18;;
10847;SDS011;5477;48.806;9.154;2023-06-26T09:00:07;4.78;;;4.28;;
10847;SDS011;5477;48.806;9.154;2023-06-26T09:02:36;4.70;;;4.25;;
10847;SDS011;5477;48.806;9.154;2023-06-26T09:05:08;5.50;;;4.22;;
10847;SDS011;5477;48.806;9.154;2023-06-26T09:07:37;5.00;;;4.47;;
10847;SDS011;5477;48.806;9.154;2023-06-26T09:10:06;5.57;;;4.80;;
10847;SDS011;5477;48.806;9.154;2023-06-26T09:12:34;4.68;;;4.28;;
10847;SDS011;5477;48.806;9.154;2023-06-26T09:15:04;5.65;;;4.13;;
10847;SDS011;5477;48.806;9.154;2023-06-26T09:17:38;4.75;;;4.13;;
10847;SDS011;5477;48.806;9.154;2023-06-26T09:20:08;6.18;;;4.20;;
10847;SDS011;5477;48.806;9.154;2023-06-26T09:22:38;4.70;;;4.10;;
10847;SDS011;5477;48.806;9.154;2023-06-26T09:25:08;6.72;;;4.40;;
10847;SDS011;5477;48.806;9.154;2023-06-26T09:27:37;5.63;;;4.15;;
10847;SDS011;5477;48.806;9.154;2023-06-26T09:30:05;4.80;;;4.40;;
10847;SDS011;5477;48.806;9.154;2023-06-26T09:32:34;7.32;;;4.43;;
10847;SDS011;5477;48.806;9.154;2023-06-26T09:35:03;5.38;;;4.38;;
10847;SDS011;5477;48.806;9.154;2023-06-26T09:37:32;8.27;;;4.50;;
10847;SDS011;5477;48.806;9.154;2023-06-26T09:40:03;4.32;;;4.00;;
10847;SDS011;5477;48.806;9.154;2023-06-26T09:42:33;4.93;;;4.38;;
10847;SDS011;5477;48.806;9.154;2023-06-26T09:45:01;5.57;;;4.22;;
10847;SDS011;5477;48.806;9.154;2023-06-26T09:47:30;6.25;;;4.30;;
10847;SDS011;5477;48.806;9.154;2023-06-26T09:49:59;4.93;;;4.53;;
10847;SDS011;5477;48.806;9.154;2023-06-26T09:52:27;5.22;;;4.72;;
10847;SDS011;5477;48.806;9.154;2023-06-26T09:55:08;5.00;;;4.60;;
10847;SDS011;5477;48.806;9.154;2023-06-26T09:57:37;7.35;;;4.85;;
10847;SDS011;5477;48.806;9.154;2023-06-26T10:00:06;5.38;;;4.88;;
10847;SDS011;5477;48.806;9.154;2023-06-26T10:02:38;5.32;;;4.72;;
10847;SDS011;5477;48.806;9.154;2023-06-26T10:05:07;5.20;;;4.43;;
10847;SDS011;5477;48.806;9.154;2023-06-26T10:07:35;6.78;;;4.88;;
10847;SDS011;5477;48.806;9.154;2023-06-26T10:10:04;6.88;;;4.93;;
10847;SDS011;5477;48.806;9.154;2023-06-26T10:12:36;6.38;;;5.57;;
10847;SDS011;5477;48.806;9.154;2023-06-26T10:15:04;6.60;;;4.43;;
10847;SDS011;5477;48.806;9.154;2023-06-26T10:17:34;6.82;;;4.80;;
10847;SDS011;5477;48.806;9.154;2023-06-26T10:20:03;6.13;;;4.78;;
10847;SDS011;5477;48.806;9.154;2023-06-26T10:22:37;5.20;;;4.70;;
10847;SDS011;5477;48.806;9.154;2023-06-26T10:25:10;6.55;;;4.78;;
10847;SDS011;5477;48.806;9.154;2023-06-26T10:27:47;6.97;;;5.50;;
10847;SDS011;5477;48.806;9.154;2023-06-26T10:30:20;6.30;;;5.40;;
10847;SDS011;5477;48.806;9.154;2023-06-26T10:32:51;5.72;;;5.13;;
10847;SDS011;5477;48.806;9.154;2023-06-26T10:35:19;8.93;;;5.65;;
10847;SDS011;5477;48.806;9.154;2023-06-26T10:37:48;7.43;;;5.65;;
10847;SDS011;5477;48.806;9.154;2023-06-26T10:40:21;7.55;;;5.70;;
10847;SDS011;5477;48.806;9.154;2023-06-26T10:42:57;7.63;;;5.70;;
10847;SDS011;5477;48.806;9.154;2023-06-26T10:45:33;6.20;;;5.32;;
10847;SDS011;5477;48.806;9.154;2023-06-26T10:48:02;6.47;;;5.20;;
10847;SDS011;5477;48.806;9.154;2023-06-26T10:50:33;6.85;;;5.10;;
10847;SDS011;5477;48.806;9.154;2023-06-26T10:53:12;8.27;;;5.40;;
10847;SDS011;5477;48.806;9.154;2023-06-26T10:55:55;8.80;;;5.82;;
10847;SDS011;5477;48.806;9.154;2023-06-26T10:58:32;5.95;;;5.35;;
10847;SDS011;5477;48.806;9.154;2023-06-26T11:01:18;5.97;;;5.38;;
10847;SDS011;5477;48.806;9.154;2023-06-26T11:04:00;7.10;;;5.25;;
10847;SDS011;5477;48.806;9.154;2023-06-26T11:06:31;7.45;;;5.32;;
10847;SDS011;5477;48.806;9.154;2023-06-26T11:09:06;8.45;;;5.30;;
10847;SDS011;5477;48.806;9.154;2023-06-26T11:11:59;6.20;;;5.65;;
10847;SDS011;5477;48.806;9.154;2023-06-26T11:14:33;7.97;;;5.30;;
10847;SDS011;5477;48.806;9.154;2023-06-26T11:17:02;6.40;;;5.60;;
10847;SDS011;5477;48.806;9.154;2023-06-26T11:19:31;7.85;;;5.80;;
10847;SDS011;5477;48.806;9.154;2023-06-26T11:22:01;6.20;;;5.20;;
10847;SDS011;5477;48.806;9.154;2023-06-26T11:24:31;6.07;;;5.57;;
10847;SDS011;5477;48.806;9.154;2023-06-26T11:27:00;6.25;;;5.65;;
10847;SDS011;5477;48.806;9.154;2023-06-26T11:29:30;6.03;;;5.35;;
10847;SDS011;5477;48.806;9.154;2023-06-26T11:32:01;8.02;;;5.82;;
10847;SDS011;5477;48.806;9.154;2023-06-26T11:34:32;6.85;;;5.50;;
10847;SDS011;5477;48.806;9.154;2023-06-26T11:37:01;6.63;;;5.97;;
10847;SDS011;5477;48.806;9.154;2023-06-26T11:39:30;5.63;;;5.03;;
10847;SDS011;5477;48.806;9.154;2023-06-26T11:41:59;8.05;;;6.22;;
10847;SDS011;5477;48.806;9.154;2023-06-26T11:44:30;9.70;;;5.30;;
10847;SDS011;5477;48.806;9.154;2023-06-26T11:47:06;9.27;;;5.38;;
10847;SDS011;5477;48.806;9.154;2023-06-26T11:49:34;5.80;;;4.97;;
10847;SDS011;5477;48.806;9.154;2023-06-26T11:52:03;7.75;;;5.60;;
10847;SDS011;5477;48.806;9.154;2023-06-26T11:54:31;5.30;;;4.80;;
10847;SDS011;5477;48.806;9.154;2023-06-26T11:56:59;6.63;;;5.20;;
10847;SDS011;5477;48.806;9.154;2023-06-26T11:59:35;8.90;;;4.97;;
10847;SDS011;5477;48.806;9.154;2023-06-26T12:02:06;6.10;;;5.10;;
10847;SDS011;5477;48.806;9.154;2023-06-26T12:04:35;7.13;;;5.15;;
10847;SDS011;5477;48.806;9.154;2023-06-26T12:07:05;6.10;;;4.82;;
10847;SDS011;5477;48.806;9.154;2023-06-26T12:09:37;7.05;;;5.68;;
10847;SDS011;5477;48.806;9.154;2023-06-26T12:12:07;5.80;;;5.22;;
10847;SDS011;5477;48.806;9.154;2023-06-26T12:14:37;11.88;;;5.57;;
10847;SDS011;5477;48.806;9.154;2023-06-26T12:17:08;7.50;;;5.15;;
10847;SDS011;5477;48.806;9.154;2023-06-26T12:19:37;6.75;;;5.25;;
10847;SDS011;5477;48.806;9.154;2023-06-26T12:22:07;9.35;;;5.13;;
10847;SDS011;5477;48.806;9.154;2023-06-26T12:24:36;8.25;;;5.28;;
10847;SDS011;5477;48.806;9.154;2023-06-26T12:27:07;6.90;;;5.03;;
10847;SDS011;5477;48.806;9.154;2023-06-26T12:29:38;6.70;;;5.10;;
10847;SDS011;5477;48.806;9.154;2023-06-26T12:32:10;5.72;;;4.85;;
10847;SDS011;5477;48.806;9.154;2023-06-26T12:34:38;7.65;;;4.95;;
10847;SDS011;5477;48.806;9.154;2023-06-26T12:37:08;6.43;;;5.43;;
10847;SDS011;5477;48.806;9.154;2023-06-26T12:39:46;7.30;;;5.15;;
10847;SDS011;5477;48.806;9.154;2023-06-26T12:42:16;6.68;;;5.00;;
10847;SDS011;5477;48.806;9.154;2023-06-26T12:44:46;8.73;;;4.85;;
10847;SDS011;5477;48.806;9.154;2023-06-26T12:47:15;7.50;;;5.05;;
10847;SDS011;5477;48.806;9.154;2023-06-26T12:49:44;10.50;;;5.07;;
10847;SDS011;5477;48.806;9.154;2023-06-26T12:52:17;5.85;;;5.32;;
10847;SDS011;5477;48.806;9.154;2023-06-26T12:54:47;6.50;;;5.50;;
10847;SDS011;5477;48.806;9.154;2023-06-26T12:57:19;9.02;;;4.93;;
10847;SDS011;5477;48.806;9.154;2023-06-26T12:59:49;6.57;;;4.97;;
10847;SDS011;5477;48.806;9.154;2023-06-26T13:02:17;7.75;;;5.07;;
10847;SDS011;5477;48.806;9.154;2023-06-26T13:04:46;7.93;;;5.15;;
10847;SDS011;5477;48.806;9.154;2023-06-26T13:07:14;5.85;;;4.50;;
10847;SDS011;5477;48.806;9.154;2023-06-26T13:09:42;7.93;;;5.03;;
10847;SDS011;5477;48.806;9.154;2023-06-26T13:12:12;5.50;;;4.72;;
10847;SDS011;5477;48.806;9.154;2023-06-26T13:14:40;6.60;;;4.65;;
10847;SDS011;5477;48.806;9.154;2023-06-26T13:17:10;6.00;;;4.78;;
10847;SDS011;5477;48.806;9.154;2023-06-26T13:19:39;9.75;;;4.78;;
10847;SDS011;5477;48.806;9.154;2023-06-26T13:22:07;5.20;;;4.25;;
10847;SDS011;5477;48.806;9.154;2023-06-26T13:24:35;6.47;;;4.05;;
10847;SDS011;5477;48.806;9.154;2023-06-26T13:27:03;5.13;;;4.60;;
10847;SDS011;5477;48.806;9.154;2023-06-26T13:29:31;4.57;;;4.13;;
10847;SDS011;5477;48.806;9.154;2023-06-26T13:31:59;4.75;;;4.20;;
10847;SDS011;5477;48.806;9.154;2023-06-26T13:34:29;4.38;;;3.97;;
10847;SDS011;5477;48.806;9.154;2023-06-26T13:36:57;6.20;;;4.40;;
10847;SDS011;5477;48.806;9.154;2023-06-26T13:39:26;5.78;;;4.43;;
10847;SDS011;5477;48.806;9.154;2023-06-26T13:41:54;5.43;;;4.38;;
10847;SDS011;5477;48.806;9.154;2023-06-26T13:44:23;6.35;;;3.88;;
10847;SDS011;5477;48.806;9.154;2023-06-26T13:47:12;5.47;;;4.38;;
10847;SDS011;5477;48.806;9.154;2023-06-26T13:49:42;5.35;;;3.90;;
10847;SDS011;5477;48.806;9.154;2023-06-26T13:52:10;5.18;;;3.97;;
10847;SDS011;5477;48.806;9.154;2023-06-26T13:54:38;5.60;;;4.03;;
10847;SDS011;5477;48.806;9.154;2023-06-26T13:57:06;5.85;;;4.20;;
10847;SDS011;5477;48.806;9.154;2023-06-26T13:59:36;4.55;;;3.85;;
10847;SDS011;5477;48.806;9.154;2023-06-26T14:02:05;4.25;;;3.85;;
10847;SDS011;5477;48.806;9.154;2023-06-26T14:04:34;6.75;;;4.00;;
10847;SDS011;5477;48.806;9.154;2023-06-26T14:07:05;5.10;;;3.40;;
10847;SDS011;5477;48.806;9.154;2023-06-26T14:09:33;4.30;;;3.67;;
10847;SDS011;5477;48.806;9.154;2023-06-26T14:12:01;4.63;;;3.70;;
10847;SDS011;5477;48.806;9.154;2023-06-26T14:14:30;3.63;;;3.33;;
10847;SDS011;5477;48.806;9.154;2023-06-26T14:16:58;6.18;;;3.45;;
10847;SDS011;5477;48.806;9.154;2023-06-26T14:19:26;4.00;;;3.03;;
10847;SDS011;5477;48.806;9.154;2023-06-26T14:21:54;6.22;;;3.47;;
10847;SDS011;5477;48.806;9.154;2023-06-26T14:24:23;4.40;;;3.22;;
10847;SDS011;5477;48.806;9.154;2023-06-26T14:26:52;4.25;;;2.90;;
10847;SDS011;5477;48.806;9.154;2023-06-26T14:29:20;3.58;;;3.28;;
10847;SDS011;5477;48.806;9.154;2023-06-26T14:31:48;3.78;;;2.90;;
10847;SDS011;5477;48.806;9.154;2023-06-26T14:34:18;3.20;;;2.88;;
10847;SDS011;5477;48.806;9.154;2023-06-26T14:36:46;5.78;;;3.05;;
10847;SDS011;5477;48.806;9.154;2023-06-26T14:39:14;7.85;;;5.18;;
10847;SDS011;5477;48.806;9.154;2023-06-26T14:41:44;4.80;;;2.80;;
10847;SDS011;5477;48.806;9.154;2023-06-26T14:44:14;7.28;;;2.70;;
10847;SDS011;5477;48.806;9.154;2023-06-26T14:46:42;7.13;;;3.33;;
10847;SDS011;5477;48.806;9.154;2023-06-26T14:49:10;5.13;;;2.90;;
10847;SDS011;5477;48.806;9.154;2023-06-26T14:51:39;3.75;;;2.65;;
10847;SDS011;5477;48.806;9.154;2023-06-26T14:54:07;4.72;;;2.85;;
10847;SDS011;5477;48.806;9.154;2023-06-26T14:56:35;5.72;;;2.92;;
10847;SDS011;5477;48.806;9.154;2023-06-26T14:59:05;9.82;;;2.80;;
10847;SDS011;5477;48.806;9.154;2023-06-26T15:01:33;3.42;;;3.13;;
10847;SDS011;5477;48.806;9.154;2023-06-26T15:04:01;4.80;;;3.00;;
10847;SDS011;5477;48.806;9.154;2023-06-26T15:06:29;6.13;;;2.92;;
10847;SDS011;5477;48.806;9.154;2023-06-26T15:08:58;3.60;;;2.90;;
10847;SDS011;5477;48.806;9.154;2023-06-26T15:11:26;6.32;;;3.28;;
10847;SDS011;5477;48.806;9.154;2023-06-26T15:13:55;3.53;;;3.05;;